Henning, Illinois
Current Conditions -  °F | °C
As of 11:55 AM on Thursday 30 Oct 2014 (Local Time) from KDNV Reporting Station
Scattered Clouds Scattered Clouds  
Wind Chill: 46°   Ceiling: Unl
Heat Index: 49°   Visibility: 10mi
Dew Point: 33°   Wind: 8mph
Humidity: 54%   Direction: 210°SSW
Pressure: 30.12"   Gusts: NA
Location:  40.31°N, 87.7°W
Report Text: KDNV 301655Z AUTO 21007KT 10SM SCT120 10/01 A3012 RMK AO2 T00960007
Loading
Personal Weather Stations






























Interactive Weather Map
Tropical Storm Tracking
New forecast layout! Learn more

10-Day Weather Forecast

Advertisements
Track Severe Weather on mobile